Terminal Aerodrome Forecast
Issued by NWS Bismarck, ND

Home | Current Version | Previous Version | Text Only | Print | Product List | Glossary On
Versions: 1 2 3 4 5 6 7 8 9 10 11 12 13 14 15 16
000
FTUS43 KBIS 240500
TAFBIS
TAF
KBIS 240540Z 2406/2506 VRB03KT P6SM BKN250
     FM241100 27009KT P6SM FEW100
     FM241600 29018G26KT P6SM FEW120
     FM242300 30015KT P6SM FEW080
     FM250100 29004KT P6SM FEW100=

USA.gov is the U.S. government's official web portal to all federal, state and local government web resources and services.